createdAt,value
2023-01-13T00:00:23.072Z,-21.50
2023-01-13T00:02:50.864Z,-21.52
2023-01-13T00:05:18.779Z,-21.53
2023-01-13T00:07:46.933Z,-21.55
2023-01-13T00:10:14.807Z,-21.56
2023-01-13T00:12:42.866Z,-21.56
2023-01-13T00:15:11.407Z,-21.47
2023-01-13T00:17:39.395Z,-21.39
2023-01-13T00:20:07.999Z,-21.30
2023-01-13T00:22:36.058Z,-21.20
2023-01-13T00:25:04.792Z,-21.15
2023-01-13T00:27:32.828Z,-21.04
2023-01-13T00:30:00.708Z,-20.95
2023-01-13T00:32:28.816Z,-20.90
2023-01-13T00:34:56.655Z,-21.00
2023-01-13T00:37:24.585Z,-21.15
2023-01-13T00:39:53.127Z,-21.18
2023-01-13T00:42:39.233Z,-21.22
2023-01-13T00:45:07.556Z,-21.36
2023-01-13T00:47:35.489Z,-21.45
2023-01-13T00:50:03.325Z,-21.44
2023-01-13T00:52:32.995Z,-21.37
2023-01-13T00:55:01.513Z,-21.29
2023-01-13T00:57:29.388Z,-21.17
2023-01-13T00:59:57.201Z,-21.05
2023-01-13T01:02:25.111Z,-20.94
2023-01-13T01:04:52.974Z,-20.83
2023-01-13T01:07:20.773Z,-20.77
2023-01-13T01:09:48.693Z,-20.71
2023-01-13T01:12:16.707Z,-20.62
2023-01-13T01:14:44.981Z,-20.43
2023-01-13T01:17:12.819Z,-20.22
2023-01-13T01:19:40.817Z,-20.01
2023-01-13T01:22:08.607Z,-19.84
2023-01-13T01:24:36.516Z,-19.72
2023-01-13T01:27:04.235Z,-19.62
2023-01-13T01:29:32.086Z,-19.56
2023-01-13T01:31:59.986Z,-19.54
2023-01-13T01:34:27.801Z,-19.48
2023-01-13T01:36:55.676Z,-19.46
2023-01-13T01:39:23.557Z,-19.51
2023-01-13T01:42:09.582Z,-19.59
2023-01-13T01:44:43.282Z,-19.58
2023-01-13T01:47:15.589Z,-19.57
2023-01-13T01:49:43.405Z,-19.55
2023-01-13T01:52:12.375Z,-19.55
2023-01-13T01:54:53.460Z,-19.56
2023-01-13T01:57:27.890Z,-19.56
2023-01-13T01:59:55.672Z,-19.53
2023-01-13T02:02:23.791Z,-19.50
2023-01-13T02:04:52.625Z,-19.41
2023-01-13T02:07:32.114Z,-19.32
2023-01-13T02:10:02.505Z,-19.19
2023-01-13T02:12:30.335Z,-19.06
2023-01-13T02:15:02.661Z,-19.01
2023-01-13T02:18:02.509Z,-18.84
2023-01-13T02:20:33.327Z,-18.69
2023-01-13T02:23:44.539Z,-18.52
2023-01-13T02:26:33.336Z,-18.36
2023-01-13T02:29:57.236Z,-18.25
2023-01-13T02:32:31.608Z,-18.15
2023-01-13T02:35:09.056Z,-18.06
2023-01-13T02:37:38.168Z,-17.96
2023-01-13T02:40:17.869Z,-17.79
2023-01-13T02:43:11.344Z,-17.61
2023-01-13T02:45:42.835Z,-17.52
2023-01-13T02:48:10.663Z,-17.33
2023-01-13T02:50:59.486Z,-17.18
2023-01-13T02:53:34.961Z,-17.16
2023-01-13T02:56:03.911Z,-17.30
2023-01-13T02:58:32.671Z,-17.67
2023-01-13T03:01:00.580Z,-17.77
2023-01-13T03:03:28.448Z,-17.90
2023-01-13T03:06:07.172Z,-17.99
2023-01-13T03:08:43.313Z,-18.10
2023-01-13T03:11:15.270Z,-18.23
2023-01-13T03:14:04.306Z,-18.29
2023-01-13T03:16:38.789Z,-18.31
2023-01-13T03:19:09.116Z,-18.25
2023-01-13T03:21:55.813Z,-18.22
2023-01-13T03:24:30.135Z,-18.19
2023-01-13T03:27:02.614Z,-18.17
2023-01-13T03:29:39.275Z,-18.19
2023-01-13T03:32:25.479Z,-17.92
2023-01-13T03:35:10.500Z,-17.59
2023-01-13T03:37:40.298Z,-17.51
2023-01-13T03:40:11.980Z,-17.57
2023-01-13T03:42:39.778Z,-17.54
2023-01-13T03:45:11.104Z,-17.29
2023-01-13T03:47:55.515Z,-17.14
2023-01-13T03:50:26.248Z,-16.91
2023-01-13T03:52:59.563Z,-16.82
2023-01-13T03:55:29.555Z,-16.77
2023-01-13T03:58:03.568Z,-16.69
2023-01-13T04:00:34.701Z,-16.41
2023-01-13T04:03:07.953Z,-16.19
2023-01-13T04:05:36.792Z,-15.99
2023-01-13T04:08:20.728Z,-15.83
2023-01-13T04:10:54.168Z,-15.77
2023-01-13T04:13:23.322Z,-15.80
2023-01-13T04:15:51.102Z,-15.89
2023-01-13T04:18:24.064Z,-15.73
2023-01-13T04:20:53.007Z,-15.71
2023-01-13T04:23:21.461Z,-15.71
2023-01-13T04:25:49.473Z,-15.62
2023-01-13T04:28:17.484Z,-15.43
2023-01-13T04:30:45.582Z,-15.30
2023-01-13T04:33:13.957Z,-15.13
2023-01-13T04:35:42.112Z,-14.97
2023-01-13T04:38:16.406Z,-14.83
2023-01-13T04:40:44.380Z,-14.75
2023-01-13T04:43:12.321Z,-14.70
2023-01-13T04:45:40.066Z,-14.77
2023-01-13T04:48:07.847Z,-14.86
2023-01-13T04:50:36.296Z,-14.93
2023-01-13T04:53:04.269Z,-14.79
2023-01-13T04:55:32.585Z,-14.68
2023-01-13T04:58:05.800Z,-14.73
2023-01-13T05:00:33.700Z,-14.74
2023-01-13T05:03:01.682Z,-14.50
2023-01-13T05:05:29.898Z,-14.40
2023-01-13T05:07:58.354Z,-14.37
2023-01-13T05:10:26.582Z,-14.34
2023-01-13T05:13:12.525Z,-14.27
2023-01-13T05:15:59.682Z,-14.26
2023-01-13T05:18:28.365Z,-14.10
2023-01-13T05:20:56.206Z,-14.23
2023-01-13T05:23:42.666Z,-14.15
2023-01-13T05:26:10.495Z,-14.03
2023-01-13T05:28:38.182Z,-13.80
2023-01-13T05:31:06.120Z,-13.58
2023-01-13T05:33:35.740Z,-13.39
2023-01-13T05:36:04.207Z,-13.26
2023-01-13T05:38:31.989Z,-13.24
2023-01-13T05:41:19.012Z,-12.97
2023-01-13T05:43:47.061Z,-12.79
2023-01-13T05:46:15.280Z,-13.02
2023-01-13T05:48:43.436Z,-12.97
2023-01-13T05:51:12.222Z,-12.81
2023-01-13T05:53:43.141Z,-12.74
2023-01-13T05:56:11.389Z,-12.77
2023-01-13T05:58:39.520Z,-13.07
2023-01-13T06:01:08.852Z,-13.34
2023-01-13T06:03:36.882Z,-13.51
2023-01-13T06:06:04.832Z,-13.37
2023-01-13T06:08:32.865Z,-13.24
2023-01-13T06:11:00.766Z,-13.17
2023-01-13T06:13:28.614Z,-13.20
2023-01-13T06:15:58.160Z,-13.16
2023-01-13T06:18:26.210Z,-13.20
2023-01-13T06:20:54.090Z,-13.10
2023-01-13T06:23:21.960Z,-12.95
2023-01-13T06:26:16.001Z,-12.82
2023-01-13T06:28:44.160Z,-12.81
2023-01-13T06:31:12.376Z,-12.83
2023-01-13T06:33:43.392Z,-12.81
2023-01-13T06:36:14.113Z,-12.89
2023-01-13T06:38:44.069Z,-12.97
2023-01-13T06:41:12.396Z,-13.08
2023-01-13T06:43:40.319Z,-13.07
2023-01-13T06:46:08.757Z,-13.05
2023-01-13T06:48:36.561Z,-13.18
2023-01-13T06:51:05.606Z,-13.27
2023-01-13T06:53:33.597Z,-13.31
2023-01-13T06:56:01.455Z,-13.37
2023-01-13T06:58:29.296Z,-13.35
2023-01-13T07:01:00.808Z,-13.35
2023-01-13T07:03:28.792Z,-13.38
2023-01-13T07:05:56.954Z,-13.36
2023-01-13T07:08:24.949Z,-13.26
2023-01-13T07:10:53.477Z,-13.11
2023-01-13T07:13:40.063Z,-13.09
2023-01-13T07:16:08.908Z,-13.19
2023-01-13T07:18:36.874Z,-13.30
2023-01-13T07:21:08.974Z,-13.37
2023-01-13T07:23:41.040Z,-13.41
2023-01-13T07:26:09.434Z,-13.38
2023-01-13T07:28:37.399Z,-13.34
2023-01-13T07:31:05.934Z,-13.31
2023-01-13T07:33:33.863Z,-13.24
2023-01-13T07:36:03.421Z,-13.17
2023-01-13T07:38:31.403Z,-13.17
2023-01-13T07:41:19.192Z,-13.17
2023-01-13T07:43:47.048Z,-13.09
2023-01-13T07:46:14.972Z,-13.07
2023-01-13T07:48:42.887Z,-12.93
2023-01-13T07:51:11.446Z,-12.68
2023-01-13T07:53:39.293Z,-12.45
2023-01-13T07:56:07.820Z,-12.29
2023-01-13T07:58:36.305Z,-12.11
2023-01-13T08:01:11.319Z,-11.97
2023-01-13T08:03:39.896Z,-11.95
2023-01-13T08:06:07.898Z,-11.95
2023-01-13T08:08:35.837Z,-11.93
2023-01-13T08:11:04.912Z,-11.86
2023-01-13T08:13:32.812Z,-11.75
2023-01-13T08:16:02.257Z,-11.64
2023-01-13T08:18:30.267Z,-11.54
2023-01-13T08:21:01.281Z,-11.43
2023-01-13T08:23:29.145Z,-11.35
2023-01-13T08:26:01.863Z,-11.25
2023-01-13T08:28:29.886Z,-11.12
2023-01-13T08:31:05.057Z,-11.01
2023-01-13T08:33:33.215Z,-10.96
2023-01-13T08:36:06.924Z,-10.90
2023-01-13T08:38:35.318Z,-10.89
2023-01-13T08:41:09.221Z,-10.86
2023-01-13T08:43:37.000Z,-10.87
2023-01-13T08:46:05.136Z,-10.85
2023-01-13T08:48:33.213Z,-10.82
2023-01-13T08:51:05.795Z,-10.80
2023-01-13T08:53:33.317Z,-10.74
2023-01-13T08:56:01.149Z,-10.72
2023-01-13T08:58:29.077Z,-10.72
2023-01-13T09:00:57.301Z,-10.68
2023-01-13T09:03:25.347Z,-10.69
2023-01-13T09:05:53.183Z,-10.65
2023-01-13T09:08:21.884Z,-10.63
2023-01-13T09:10:49.932Z,-10.59
2023-01-13T09:13:17.772Z,-10.61
2023-01-13T09:15:46.255Z,-10.55
2023-01-13T09:18:14.126Z,-10.49
2023-01-13T09:20:42.190Z,-10.46
2023-01-13T09:23:11.145Z,-10.41
2023-01-13T09:25:39.986Z,-10.37
2023-01-13T09:28:08.921Z,-10.31
2023-01-13T09:30:37.713Z,-10.25
2023-01-13T09:33:23.721Z,-10.21
2023-01-13T09:35:51.727Z,-10.18
2023-01-13T09:38:19.589Z,-10.17
2023-01-13T09:40:48.384Z,-10.14
2023-01-13T09:43:42.880Z,-10.14
2023-01-13T09:46:47.561Z,-10.12
2023-01-13T09:49:22.686Z,-10.11
2023-01-13T09:51:59.563Z,-10.10
2023-01-13T09:54:42.684Z,-10.06
2023-01-13T09:57:17.806Z,-10.05
2023-01-13T09:59:45.731Z,-10.01
2023-01-13T10:02:34.653Z,-9.98
2023-01-13T10:05:32.813Z,-9.94
2023-01-13T10:08:05.723Z,-9.95
2023-01-13T10:10:54.177Z,-9.91
2023-01-13T10:13:30.668Z,-9.87
2023-01-13T10:16:06.008Z,-9.89
2023-01-13T10:18:38.335Z,-9.86
2023-01-13T10:21:17.819Z,-9.82
2023-01-13T10:24:09.424Z,-9.82
2023-01-13T10:26:37.096Z,-9.80
2023-01-13T10:29:25.429Z,-9.75
2023-01-13T10:31:54.418Z,-9.71
2023-01-13T10:34:23.020Z,-9.67
2023-01-13T10:37:06.857Z,-9.60
2023-01-13T10:39:45.741Z,-9.57
2023-01-13T10:42:22.460Z,-9.56
2023-01-13T10:44:54.359Z,-9.53
2023-01-13T10:47:27.679Z,-9.49
2023-01-13T10:50:13.403Z,-9.45
2023-01-13T10:52:43.959Z,-9.42
2023-01-13T10:55:32.434Z,-9.40
2023-01-13T10:58:19.388Z,-9.38
2023-01-13T11:00:47.481Z,-9.36
2023-01-13T11:03:24.832Z,-9.32
2023-01-13T11:05:59.829Z,-9.30
2023-01-13T11:08:29.670Z,-9.29
2023-01-13T11:10:59.264Z,-9.29
2023-01-13T11:13:35.247Z,-9.29
2023-01-13T11:16:05.883Z,-9.28
2023-01-13T11:19:12.382Z,-9.29
2023-01-13T11:22:20.837Z,-9.25
2023-01-13T11:24:54.821Z,-9.29
2023-01-13T11:27:32.028Z,-9.29
2023-01-13T11:30:26.477Z,-9.31
2023-01-13T11:33:16.110Z,-9.32
2023-01-13T11:36:02.359Z,-9.29
2023-01-13T11:38:54.487Z,-9.26
2023-01-13T11:41:33.133Z,-9.29
2023-01-13T11:44:31.574Z,-9.28
2023-01-13T11:46:59.377Z,-9.31
2023-01-13T11:49:50.235Z,-9.27
2023-01-13T11:52:35.684Z,-9.27
2023-01-13T11:55:22.848Z,-9.29
2023-01-13T11:58:33.807Z,-9.25
2023-01-13T12:01:23.029Z,-9.25
2023-01-13T12:04:08.635Z,-9.23
2023-01-13T12:06:38.626Z,-9.22
2023-01-13T12:09:46.758Z,-9.17
2023-01-13T12:12:20.507Z,-9.16
2023-01-13T12:14:55.982Z,-9.15
2023-01-13T12:17:32.170Z,-9.13
2023-01-13T12:19:59.861Z,-9.12
2023-01-13T12:22:29.853Z,-9.10
2023-01-13T12:25:06.436Z,-9.08
2023-01-13T12:27:57.116Z,-9.07
2023-01-13T12:30:28.430Z,-9.06
2023-01-13T12:32:59.574Z,-9.02
2023-01-13T12:35:39.724Z,-8.97
2023-01-13T12:38:23.460Z,-8.95
2023-01-13T12:41:09.816Z,-8.95
2023-01-13T12:43:56.466Z,-8.91
2023-01-13T12:46:24.915Z,-8.91
2023-01-13T12:48:57.129Z,-8.89
2023-01-13T12:51:38.373Z,-8.90
2023-01-13T12:54:38.278Z,-8.88
2023-01-13T12:57:26.712Z,-8.92
2023-01-13T13:00:00.752Z,-8.94
2023-01-13T13:02:33.391Z,-8.92
2023-01-13T13:05:02.104Z,-8.91
2023-01-13T13:07:50.148Z,-8.96
2023-01-13T13:10:32.183Z,-8.97
2023-01-13T13:13:18.928Z,-8.97
2023-01-13T13:15:50.717Z,-8.98
2023-01-13T13:18:18.534Z,-8.95
2023-01-13T13:21:09.335Z,-8.90
2023-01-13T13:23:48.360Z,-8.84
2023-01-13T13:26:23.276Z,-8.80
2023-01-13T13:29:29.559Z,-8.73
2023-01-13T13:32:31.525Z,-8.70
2023-01-13T13:35:21.431Z,-8.74
2023-01-13T13:38:32.082Z,-8.66
2023-01-13T13:41:18.308Z,-8.68
2023-01-13T13:44:04.985Z,-8.66
2023-01-13T13:46:49.342Z,-8.64
2023-01-13T13:49:22.258Z,-8.62
2023-01-13T13:52:05.141Z,-8.59
2023-01-13T13:54:32.764Z,-8.56
2023-01-13T13:57:01.459Z,-8.58
2023-01-13T13:59:34.036Z,-8.55
2023-01-13T14:02:02.341Z,-8.52
2023-01-13T14:04:34.136Z,-8.55
2023-01-13T14:07:21.029Z,-8.51
2023-01-13T14:09:51.385Z,-8.70
2023-01-13T14:12:27.419Z,-8.82
2023-01-13T14:14:57.963Z,-9.04
2023-01-13T14:17:27.450Z,-9.16
2023-01-13T14:20:02.859Z,-9.19
2023-01-13T14:22:30.651Z,-9.27
2023-01-13T14:24:58.879Z,-9.29
2023-01-13T14:27:28.092Z,-9.28
2023-01-13T14:29:56.855Z,-9.33
2023-01-13T14:32:28.923Z,-9.38
2023-01-13T14:34:56.750Z,-9.40
2023-01-13T14:37:39.710Z,-9.42
2023-01-13T14:40:36.557Z,-9.40
2023-01-13T14:43:10.874Z,-9.36
2023-01-13T14:45:38.823Z,-9.36
2023-01-13T14:48:08.826Z,-9.36
2023-01-13T14:50:36.810Z,-9.33
2023-01-13T14:53:05.566Z,-9.30
2023-01-13T14:55:34.286Z,-9.24
2023-01-13T14:58:37.753Z,-9.16
2023-01-13T15:01:29.538Z,-9.11
2023-01-13T15:04:17.313Z,-9.08
2023-01-13T15:06:48.783Z,-9.00
2023-01-13T15:09:23.773Z,-8.96
2023-01-13T15:11:54.718Z,-8.92
2023-01-13T15:14:32.049Z,-8.87
2023-01-13T15:16:59.921Z,-8.82
2023-01-13T15:19:27.725Z,-8.78
2023-01-13T15:21:55.536Z,-8.72
2023-01-13T15:24:23.558Z,-8.67
2023-01-13T15:26:51.521Z,-8.61
2023-01-13T15:29:20.892Z,-8.58
2023-01-13T15:31:48.809Z,-8.56
2023-01-13T15:34:16.572Z,-8.56
2023-01-13T15:36:44.516Z,-8.55
2023-01-13T15:39:12.309Z,-8.53
2023-01-13T15:41:58.558Z,-8.52
2023-01-13T15:44:46.134Z,-8.50
2023-01-13T15:47:14.834Z,-8.52
2023-01-13T15:49:45.915Z,-8.52
2023-01-13T15:52:22.628Z,-8.52
2023-01-13T15:54:51.204Z,-8.53
2023-01-13T15:57:33.173Z,-8.50
2023-01-13T16:00:27.239Z,-8.52
2023-01-13T16:02:55.130Z,-8.54
2023-01-13T16:05:23.070Z,-8.56
2023-01-13T16:07:50.906Z,-8.56
2023-01-13T16:10:26.619Z,-8.56
2023-01-13T16:12:56.228Z,-8.56
2023-01-13T16:15:25.316Z,-8.54
2023-01-13T16:18:01.025Z,-8.56
2023-01-13T16:20:29.080Z,-8.52
2023-01-13T16:22:57.030Z,-8.53
2023-01-13T16:25:26.491Z,-8.52
2023-01-13T16:27:54.554Z,-8.49
2023-01-13T16:30:29.822Z,-8.49
2023-01-13T16:32:58.049Z,-8.47
2023-01-13T16:35:25.989Z,-8.47
2023-01-13T16:37:54.442Z,-8.47
2023-01-13T16:40:25.403Z,-8.49
2023-01-13T16:42:53.410Z,-8.50
2023-01-13T16:45:21.241Z,-8.50
2023-01-13T16:47:49.268Z,-8.50
2023-01-13T16:50:34.552Z,-8.52
2023-01-13T16:53:03.482Z,-8.54
2023-01-13T16:55:31.253Z,-8.56
2023-01-13T16:57:59.142Z,-8.56
2023-01-13T17:00:27.046Z,-8.56
2023-01-13T17:02:54.801Z,-8.59
2023-01-13T17:05:22.595Z,-8.57
2023-01-13T17:07:50.264Z,-8.58
2023-01-13T17:10:23.373Z,-8.58
2023-01-13T17:12:51.187Z,-8.56
2023-01-13T17:15:19.547Z,-8.58
2023-01-13T17:17:49.255Z,-8.58
2023-01-13T17:20:17.061Z,-8.54
2023-01-13T17:22:47.511Z,-8.55
2023-01-13T17:25:17.709Z,-8.56
2023-01-13T17:27:45.460Z,-8.54
2023-01-13T17:30:16.243Z,-8.55
2023-01-13T17:32:44.076Z,-8.54
2023-01-13T17:35:13.735Z,-8.54
2023-01-13T17:37:41.643Z,-8.56
2023-01-13T17:40:10.410Z,-8.58
2023-01-13T17:42:38.320Z,-8.56
2023-01-13T17:45:07.428Z,-8.53
2023-01-13T17:47:35.354Z,-8.53
2023-01-13T17:50:04.557Z,-8.56
2023-01-13T17:52:32.316Z,-8.58
2023-01-13T17:55:00.183Z,-8.57
2023-01-13T17:57:28.138Z,-8.59
2023-01-13T17:59:55.892Z,-8.61
2023-01-13T18:02:23.596Z,-8.60
2023-01-13T18:04:51.422Z,-8.59
2023-01-13T18:07:19.180Z,-8.59
2023-01-13T18:09:47.053Z,-8.61
2023-01-13T18:12:15.026Z,-8.59
2023-01-13T18:14:43.008Z,-8.56
2023-01-13T18:17:11.032Z,-8.53
2023-01-13T18:19:56.824Z,-8.52
2023-01-13T18:22:42.854Z,-8.53
2023-01-13T18:25:32.564Z,-8.53
2023-01-13T18:28:02.986Z,-8.54
2023-01-13T18:30:30.990Z,-8.52
2023-01-13T18:32:58.947Z,-8.52
2023-01-13T18:35:26.911Z,-8.56
2023-01-13T18:37:54.741Z,-8.59
2023-01-13T18:40:22.701Z,-8.62
2023-01-13T18:42:54.721Z,-8.64
2023-01-13T18:45:27.668Z,-8.69
2023-01-13T18:47:55.663Z,-8.72
2023-01-13T18:50:23.914Z,-8.78
2023-01-13T18:52:51.920Z,-8.80
2023-01-13T18:55:19.795Z,-8.76
2023-01-13T18:57:47.723Z,-8.78
2023-01-13T19:00:17.784Z,-8.81
2023-01-13T19:02:47.635Z,-8.81
2023-01-13T19:05:15.424Z,-8.80
2023-01-13T19:07:46.771Z,-8.81
2023-01-13T19:10:14.786Z,-8.80
2023-01-13T19:12:42.662Z,-8.81
2023-01-13T19:15:10.988Z,-8.79
2023-01-13T19:17:38.850Z,-8.78
2023-01-13T19:20:07.174Z,-8.78
2023-01-13T19:22:35.309Z,-8.76
2023-01-13T19:25:03.508Z,-8.77
2023-01-13T19:27:31.522Z,-8.76
2023-01-13T19:30:01.482Z,-8.76
2023-01-13T19:32:32.715Z,-8.78
2023-01-13T19:35:01.358Z,-8.78
2023-01-13T19:37:30.696Z,-8.74
2023-01-13T19:40:01.781Z,-8.73
2023-01-13T19:42:47.873Z,-8.73
2023-01-13T19:45:28.092Z,-8.76
2023-01-13T19:47:56.391Z,-8.77
2023-01-13T19:50:24.764Z,-8.74
2023-01-13T19:52:52.617Z,-8.77
2023-01-13T19:55:20.295Z,-8.78
2023-01-13T19:57:48.177Z,-8.77
2023-01-13T20:00:20.883Z,-8.78
2023-01-13T20:02:49.948Z,-8.78
2023-01-13T20:05:21.563Z,-8.78
2023-01-13T20:07:50.489Z,-8.73
2023-01-13T20:10:19.551Z,-8.72
2023-01-13T20:12:47.353Z,-8.68
2023-01-13T20:15:15.367Z,-8.68
2023-01-13T20:17:43.160Z,-8.68
2023-01-13T20:20:12.288Z,-8.68
2023-01-13T20:22:40.361Z,-8.70
2023-01-13T20:25:09.061Z,-8.74
2023-01-13T20:27:37.098Z,-8.77
2023-01-13T20:30:06.194Z,-8.78
2023-01-13T20:32:33.830Z,-8.79
2023-01-13T20:35:01.545Z,-8.78
2023-01-13T20:37:29.318Z,-8.81
2023-01-13T20:39:58.549Z,-8.82
2023-01-13T20:42:44.614Z,-8.90
2023-01-13T20:45:21.997Z,-8.88
2023-01-13T20:47:49.855Z,-8.93
2023-01-13T20:50:17.867Z,-8.92
2023-01-13T20:52:45.766Z,-8.92
2023-01-13T20:55:13.965Z,-8.96
2023-01-13T20:57:42.303Z,-8.98
2023-01-13T21:00:10.959Z,-9.02
2023-01-13T21:02:40.046Z,-9.02
2023-01-13T21:05:08.447Z,-9.03
2023-01-13T21:07:36.193Z,-9.02
2023-01-13T21:10:04.446Z,-9.01
2023-01-13T21:12:50.258Z,-9.05
2023-01-13T21:15:18.000Z,-9.07
2023-01-13T21:18:04.965Z,-9.12
2023-01-13T21:20:34.286Z,-9.15
2023-01-13T21:23:02.759Z,-9.21
2023-01-13T21:25:31.280Z,-9.19
2023-01-13T21:28:04.617Z,-9.23
2023-01-13T21:30:32.986Z,-9.25
2023-01-13T21:33:01.199Z,-9.27
2023-01-13T21:35:28.880Z,-9.25
2023-01-13T21:37:56.682Z,-9.25
2023-01-13T21:40:24.454Z,-9.27
2023-01-13T21:43:10.554Z,-9.28
2023-01-13T21:45:57.910Z,-9.31
2023-01-13T21:48:25.872Z,-9.34
2023-01-13T21:50:53.722Z,-9.41
2023-01-13T21:53:21.492Z,-9.41
2023-01-13T21:55:54.875Z,-9.45
2023-01-13T21:58:22.669Z,-9.45
2023-01-13T22:00:50.584Z,-9.43
2023-01-13T22:03:19.146Z,-9.45
2023-01-13T22:05:47.495Z,-9.43
2023-01-13T22:08:15.307Z,-9.45
2023-01-13T22:10:58.244Z,-9.42
2023-01-13T22:13:45.859Z,-9.45
2023-01-13T22:16:14.594Z,-9.49
2023-01-13T22:18:42.382Z,-9.52
2023-01-13T22:21:11.270Z,-9.54
2023-01-13T22:23:39.180Z,-9.51
2023-01-13T22:26:07.520Z,-9.57
2023-01-13T22:28:40.994Z,-9.62
2023-01-13T22:31:15.673Z,-9.63
2023-01-13T22:33:43.640Z,-9.64
2023-01-13T22:36:11.569Z,-9.64
2023-01-13T22:38:39.453Z,-9.65
2023-01-13T22:41:08.291Z,-9.70
2023-01-13T22:43:36.783Z,-9.68
2023-01-13T22:46:07.393Z,-9.67
2023-01-13T22:48:35.372Z,-9.66
2023-01-13T22:51:10.386Z,-9.72
2023-01-13T22:53:38.477Z,-9.73
2023-01-13T22:56:06.647Z,-9.72
2023-01-13T22:58:34.572Z,-9.76
2023-01-13T23:01:10.223Z,-9.71
2023-01-13T23:03:38.047Z,-9.70
2023-01-13T23:06:06.417Z,-9.67
2023-01-13T23:08:34.630Z,-9.67
2023-01-13T23:11:03.783Z,-9.63
2023-01-13T23:13:31.611Z,-9.68
2023-01-13T23:16:04.174Z,-9.62
2023-01-13T23:18:32.102Z,-9.61
2023-01-13T23:21:10.830Z,-9.69
2023-01-13T23:23:38.829Z,-9.69
2023-01-13T23:26:07.541Z,-9.70
2023-01-13T23:28:35.792Z,-9.68
2023-01-13T23:31:11.309Z,-9.80
2023-01-13T23:33:41.573Z,-9.70
2023-01-13T23:36:13.397Z,-9.69
2023-01-13T23:38:41.696Z,-9.69
2023-01-13T23:41:10.610Z,-9.71
2023-01-13T23:43:38.507Z,-9.71
2023-01-13T23:46:08.220Z,-9.72
2023-01-13T23:48:36.250Z,-9.73
2023-01-13T23:51:06.132Z,-9.73
2023-01-13T23:53:40.209Z,-9.71
2023-01-13T23:56:11.467Z,-9.71
2023-01-13T23:58:39.152Z,-9.69
